createdAt,value
2019-01-27T00:01:16.184Z,4.90
2019-01-27T00:03:45.577Z,5.53
2019-01-27T00:06:15.002Z,5.40
2019-01-27T00:08:46.458Z,5.53
2019-01-27T00:11:15.937Z,5.07
2019-01-27T00:13:45.294Z,4.20
2019-01-27T00:16:14.921Z,4.93
2019-01-27T00:18:44.205Z,4.50
2019-01-27T00:21:13.682Z,5.10
2019-01-27T00:23:42.982Z,5.10
2019-01-27T00:26:13.526Z,5.17
2019-01-27T00:28:42.852Z,4.93
2019-01-27T00:31:12.288Z,4.70
2019-01-27T00:33:41.670Z,4.53
2019-01-27T00:36:11.106Z,4.20
2019-01-27T00:38:40.404Z,3.70
2019-01-27T00:41:10.736Z,4.00
2019-01-27T00:43:39.996Z,4.60
2019-01-27T00:46:10.429Z,4.73
2019-01-27T00:48:39.785Z,4.87
2019-01-27T00:51:09.190Z,4.33
2019-01-27T00:53:40.829Z,4.43
2019-01-27T00:56:10.260Z,4.17
2019-01-27T00:58:39.519Z,5.10
2019-01-27T01:01:09.960Z,5.50
2019-01-27T01:03:40.879Z,4.83
2019-01-27T01:06:10.460Z,4.67
2019-01-27T01:08:39.734Z,4.63
2019-01-27T01:11:09.100Z,5.07
2019-01-27T01:13:39.673Z,5.53
2019-01-27T01:16:08.982Z,4.80
2019-01-27T01:18:39.522Z,5.37
2019-01-27T01:21:08.881Z,6.50
2019-01-27T01:23:38.441Z,6.03
2019-01-27T01:26:07.743Z,5.90
2019-01-27T01:28:37.149Z,6.10
2019-01-27T01:31:06.610Z,6.17
2019-01-27T01:33:36.379Z,5.90
2019-01-27T01:36:06.044Z,5.27
2019-01-27T01:38:35.458Z,5.07
2019-01-27T01:41:05.709Z,4.60
2019-01-27T01:43:35.243Z,4.47
2019-01-27T01:46:04.928Z,4.50
2019-01-27T01:48:34.347Z,4.27
2019-01-27T01:51:04.809Z,3.80
2019-01-27T01:53:34.177Z,4.23
2019-01-27T01:56:03.509Z,14.60
2019-01-27T01:58:32.736Z,8.67
2019-01-27T02:01:02.090Z,6.33
2019-01-27T02:03:31.360Z,5.90
2019-01-27T02:06:00.800Z,4.80
2019-01-27T02:08:30.292Z,5.23
2019-01-27T02:10:59.671Z,6.37
2019-01-27T02:13:28.926Z,5.17
2019-01-27T02:16:03.436Z,5.20
2019-01-27T02:18:33.446Z,5.87
2019-01-27T02:21:04.761Z,5.30
2019-01-27T02:23:34.040Z,5.57
2019-01-27T02:26:03.646Z,6.03
2019-01-27T02:28:32.891Z,5.23
2019-01-27T02:31:03.293Z,5.93
2019-01-27T02:33:32.650Z,6.13
2019-01-27T02:36:02.145Z,6.83
2019-01-27T02:38:31.375Z,6.30
2019-01-27T02:41:00.690Z,5.90
2019-01-27T02:43:30.052Z,7.07
2019-01-27T02:45:59.433Z,7.17
2019-01-27T02:48:28.701Z,7.23
2019-01-27T02:50:58.088Z,7.17
2019-01-27T02:53:27.330Z,8.30
2019-01-27T02:55:56.761Z,7.47
2019-01-27T02:58:26.073Z,8.53
2019-01-27T03:00:55.430Z,8.23
2019-01-27T03:03:24.648Z,9.90
2019-01-27T03:06:08.374Z,8.90
2019-01-27T03:09:02.607Z,9.23
2019-01-27T03:11:47.864Z,8.63
2019-01-27T03:14:18.791Z,8.97
2019-01-27T03:16:54.744Z,9.00
2019-01-27T03:19:24.036Z,8.60
2019-01-27T03:21:53.397Z,8.90
2019-01-27T03:24:22.640Z,9.27
2019-01-27T03:26:52.192Z,8.90
2019-01-27T03:29:21.572Z,8.90
2019-01-27T03:31:50.877Z,9.30
2019-01-27T03:34:20.207Z,9.47
2019-01-27T03:36:49.666Z,8.93
2019-01-27T03:39:19.144Z,9.47
2019-01-27T03:41:48.457Z,9.00
2019-01-27T03:44:17.906Z,9.43
2019-01-27T03:46:47.165Z,10.03
2019-01-27T03:49:16.529Z,11.97
2019-01-27T03:51:45.858Z,10.70
2019-01-27T03:54:15.153Z,9.77
2019-01-27T03:56:44.455Z,10.00
2019-01-27T03:59:14.080Z,9.97
2019-01-27T04:01:43.463Z,9.47
2019-01-27T04:04:12.786Z,10.20
2019-01-27T04:06:42.204Z,10.60
2019-01-27T04:09:13.268Z,11.07
2019-01-27T04:11:43.014Z,11.10
2019-01-27T04:14:12.410Z,10.77
2019-01-27T04:16:41.676Z,11.27
2019-01-27T04:19:11.130Z,12.13
2019-01-27T04:21:40.995Z,11.77
2019-01-27T04:24:10.379Z,11.17
2019-01-27T04:26:39.858Z,11.53
2019-01-27T04:29:09.462Z,12.53
2019-01-27T04:31:38.870Z,11.80
2019-01-27T04:34:08.211Z,11.33
2019-01-27T04:36:37.773Z,12.20
2019-01-27T04:39:10.225Z,12.20
2019-01-27T04:41:39.787Z,12.77
2019-01-27T04:44:09.208Z,11.90
2019-01-27T04:46:38.561Z,11.67
2019-01-27T04:49:10.633Z,11.80
2019-01-27T04:51:39.912Z,13.13
2019-01-27T04:54:09.261Z,12.47
2019-01-27T04:56:38.584Z,12.47
2019-01-27T04:59:07.905Z,12.57
2019-01-27T05:01:37.231Z,13.33
2019-01-27T05:04:28.805Z,12.83
2019-01-27T05:06:58.080Z,12.20
2019-01-27T05:09:27.397Z,14.27
2019-01-27T05:11:56.658Z,17.57
2019-01-27T05:14:27.046Z,15.13
2019-01-27T05:16:56.277Z,14.83
2019-01-27T05:19:25.896Z,15.03
2019-01-27T05:21:55.183Z,14.67
2019-01-27T05:24:24.589Z,13.60
2019-01-27T05:26:53.893Z,12.37
2019-01-27T05:29:28.113Z,10.33
2019-01-27T05:31:57.391Z,10.00
2019-01-27T05:34:26.765Z,10.40
2019-01-27T05:36:56.459Z,11.00
2019-01-27T05:39:25.877Z,10.30
2019-01-27T05:41:55.298Z,9.50
2019-01-27T05:44:24.590Z,9.50
2019-01-27T05:46:53.962Z,9.63
2019-01-27T05:49:23.833Z,9.07
2019-01-27T05:51:53.295Z,9.87
2019-01-27T05:54:22.747Z,8.93
2019-01-27T05:56:56.448Z,10.00
2019-01-27T05:59:23.093Z,10.10
2019-01-27T06:01:52.369Z,7.83
2019-01-27T06:04:21.920Z,7.77
2019-01-27T06:06:51.175Z,8.20
2019-01-27T06:09:20.881Z,8.00
2019-01-27T06:11:50.126Z,8.00
2019-01-27T06:14:19.648Z,7.27
2019-01-27T06:16:49.340Z,7.57
2019-01-27T06:19:18.772Z,6.93
2019-01-27T06:21:48.028Z,7.60
2019-01-27T06:24:19.482Z,7.67
2019-01-27T06:26:48.722Z,7.80
2019-01-27T06:29:18.195Z,7.60
2019-01-27T06:31:47.400Z,8.47
2019-01-27T06:34:19.030Z,8.57
2019-01-27T06:36:48.311Z,8.47
2019-01-27T06:39:17.582Z,9.13
2019-01-27T06:41:46.844Z,10.17
2019-01-27T06:44:18.637Z,8.10
2019-01-27T06:46:47.973Z,9.10
2019-01-27T06:49:17.338Z,7.97
2019-01-27T06:51:46.657Z,7.60
2019-01-27T06:54:17.589Z,8.33
2019-01-27T06:56:47.036Z,12.70
2019-01-27T06:59:33.409Z,9.17
2019-01-27T07:02:15.347Z,8.63
2019-01-27T07:04:51.487Z,10.83
2019-01-27T07:07:42.464Z,11.03
2019-01-27T07:10:30.956Z,13.67
2019-01-27T07:13:09.157Z,14.90
2019-01-27T07:15:58.536Z,17.33
2019-01-27T07:18:48.416Z,19.53
2019-01-27T07:21:31.249Z,20.67
2019-01-27T07:24:26.093Z,21.27
2019-01-27T07:27:06.720Z,22.57
2019-01-27T07:29:54.007Z,25.27
2019-01-27T07:32:40.925Z,26.53
2019-01-27T07:35:29.044Z,28.10
2019-01-27T07:38:10.316Z,30.13
2019-01-27T07:41:01.545Z,28.93
2019-01-27T07:43:44.852Z,30.37
2019-01-27T07:46:35.987Z,29.77
2019-01-27T07:49:22.056Z,30.13
2019-01-27T07:52:19.362Z,29.10
2019-01-27T07:55:06.633Z,29.27
2019-01-27T07:58:04.205Z,30.77
2019-01-27T08:00:40.782Z,31.53
2019-01-27T08:03:21.512Z,32.17
2019-01-27T08:06:05.771Z,30.40
2019-01-27T08:08:54.100Z,32.27
2019-01-27T08:11:37.449Z,32.87
2019-01-27T08:14:24.631Z,31.00
2019-01-27T08:17:25.286Z,31.97
2019-01-27T08:20:11.790Z,29.10
2019-01-27T08:23:01.221Z,30.27
2019-01-27T08:25:38.609Z,30.37
2019-01-27T08:28:33.869Z,30.10
2019-01-27T08:31:09.801Z,31.00
2019-01-27T08:33:51.222Z,29.50
2019-01-27T08:36:42.519Z,32.07
2019-01-27T08:39:49.269Z,31.30
2019-01-27T08:42:52.630Z,28.33
2019-01-27T08:45:43.733Z,29.33
2019-01-27T08:48:13.085Z,29.77
2019-01-27T08:50:42.513Z,29.97
2019-01-27T08:53:11.901Z,31.17
2019-01-27T08:55:42.342Z,30.27
2019-01-27T08:58:11.779Z,29.50
2019-01-27T09:00:45.514Z,30.47
2019-01-27T09:03:32.695Z,29.77
2019-01-27T09:06:33.741Z,29.40
2019-01-27T09:09:16.112Z,30.60
2019-01-27T09:12:05.721Z,30.63
2019-01-27T09:14:52.610Z,29.60
2019-01-27T09:17:32.257Z,31.40
2019-01-27T09:20:08.923Z,31.03
2019-01-27T09:22:56.265Z,29.03
2019-01-27T09:25:44.549Z,30.40
2019-01-27T09:28:38.704Z,28.53
2019-01-27T09:31:27.513Z,29.47
2019-01-27T09:34:14.872Z,28.77
2019-01-27T09:37:12.006Z,27.50
2019-01-27T09:39:49.161Z,27.60
2019-01-27T09:42:49.402Z,29.83
2019-01-27T09:45:40.812Z,30.13
2019-01-27T09:48:32.225Z,29.30
2019-01-27T09:51:13.373Z,30.13
2019-01-27T09:53:53.345Z,29.50
2019-01-27T09:56:31.547Z,28.43
2019-01-27T09:59:19.936Z,29.20
2019-01-27T10:01:55.147Z,29.00
2019-01-27T10:04:33.462Z,29.87
2019-01-27T10:07:08.012Z,28.67
2019-01-27T10:10:02.299Z,29.97
2019-01-27T10:12:40.532Z,28.03
2019-01-27T10:15:29.401Z,28.57
2019-01-27T10:18:10.021Z,28.67
2019-01-27T10:20:57.887Z,29.83
2019-01-27T10:23:48.911Z,28.90
2019-01-27T10:26:50.404Z,29.73
2019-01-27T10:29:28.403Z,30.00
2019-01-27T10:32:15.687Z,29.40
2019-01-27T10:35:04.093Z,30.20
2019-01-27T10:37:51.384Z,30.30
2019-01-27T10:40:39.750Z,30.03
2019-01-27T10:43:28.179Z,30.13
2019-01-27T10:46:15.208Z,31.47
2019-01-27T10:49:21.933Z,29.70
2019-01-27T10:51:59.110Z,31.00
2019-01-27T10:54:37.418Z,28.80
2019-01-27T10:57:12.998Z,31.00
2019-01-27T10:59:58.809Z,29.87
2019-01-27T11:02:46.063Z,30.77
2019-01-27T11:05:22.156Z,28.67
2019-01-27T11:08:19.439Z,31.00
2019-01-27T11:11:14.434Z,29.80
2019-01-27T11:13:53.545Z,30.00
2019-01-27T11:16:55.356Z,30.50
2019-01-27T11:19:43.043Z,30.60
2019-01-27T11:22:28.946Z,29.83
2019-01-27T11:25:30.051Z,30.53
2019-01-27T11:28:22.628Z,32.23
2019-01-27T11:35:16.031Z,30.17
2019-01-27T11:38:08.414Z,30.57
2019-01-27T11:41:02.769Z,30.20
2019-01-27T11:44:14.752Z,29.67
2019-01-27T11:47:31.261Z,29.70
2019-01-27T11:57:25.217Z,29.83
2019-01-27T12:00:39.363Z,29.97
2019-01-27T12:03:08.956Z,28.97
2019-01-27T12:05:38.274Z,30.97
2019-01-27T12:08:09.597Z,30.87
2019-01-27T12:10:39.018Z,31.27
2019-01-27T12:13:08.505Z,30.53
2019-01-27T12:15:37.748Z,30.97
2019-01-27T12:18:07.148Z,30.97
2019-01-27T12:20:36.396Z,30.77
2019-01-27T12:23:05.844Z,30.50
2019-01-27T12:25:35.151Z,29.73
2019-01-27T12:28:04.957Z,30.43
2019-01-27T12:30:34.241Z,31.80
2019-01-27T12:33:03.828Z,30.40
2019-01-27T12:35:33.317Z,29.30
2019-01-27T12:38:02.824Z,31.20
2019-01-27T12:40:32.122Z,32.63
2019-01-27T12:43:01.590Z,30.03
2019-01-27T12:45:30.813Z,31.13
2019-01-27T12:48:01.101Z,31.17
2019-01-27T12:50:30.358Z,32.00
2019-01-27T12:53:00.770Z,30.97
2019-01-27T12:55:32.525Z,32.53
2019-01-27T12:58:01.949Z,32.27
2019-01-27T13:00:34.460Z,31.13
2019-01-27T13:03:09.425Z,32.10
2019-01-27T13:05:38.853Z,33.10
2019-01-27T13:08:08.240Z,31.77
2019-01-27T13:10:37.461Z,32.47
2019-01-27T13:13:11.907Z,32.47
2019-01-27T13:15:37.915Z,30.90
2019-01-27T13:18:07.229Z,33.13
2019-01-27T13:20:36.496Z,32.77
2019-01-27T13:23:06.023Z,33.10
2019-01-27T13:25:35.339Z,32.23
2019-01-27T13:28:04.956Z,33.37
2019-01-27T13:30:34.268Z,33.90
2019-01-27T13:33:03.792Z,33.50
2019-01-27T13:35:33.059Z,33.30
2019-01-27T13:38:06.242Z,34.00
2019-01-27T13:40:35.674Z,33.13
2019-01-27T13:43:05.281Z,35.20
2019-01-27T13:45:34.655Z,33.50
2019-01-27T13:48:05.900Z,34.83
2019-01-27T13:50:35.274Z,34.23
2019-01-27T13:53:05.722Z,32.63
2019-01-27T13:55:35.484Z,34.03
2019-01-27T13:58:06.163Z,34.57
2019-01-27T14:00:38.184Z,35.97
2019-01-27T14:03:07.937Z,34.47
2019-01-27T14:05:37.703Z,33.00
2019-01-27T14:08:08.738Z,34.07
2019-01-27T14:10:38.450Z,34.10
2019-01-27T14:13:08.405Z,35.67
2019-01-27T14:15:38.080Z,34.30
2019-01-27T14:18:08.825Z,35.13
2019-01-27T14:20:38.152Z,32.90
2019-01-27T14:23:07.666Z,33.73
2019-01-27T14:25:37.145Z,33.30
2019-01-27T14:28:06.556Z,33.77
2019-01-27T14:30:39.320Z,32.97
2019-01-27T14:33:08.764Z,32.90
2019-01-27T14:35:38.353Z,33.77
2019-01-27T14:38:07.856Z,49.23
2019-01-27T14:40:37.140Z,36.40
2019-01-27T14:43:07.874Z,34.57
2019-01-27T14:45:37.478Z,39.50
2019-01-27T14:48:07.611Z,34.20
2019-01-27T14:50:39.668Z,33.77
2019-01-27T14:53:10.435Z,33.90
2019-01-27T14:55:40.001Z,34.17
2019-01-27T14:58:10.367Z,33.67
2019-01-27T15:00:41.565Z,34.20
2019-01-27T15:03:13.093Z,33.67
2019-01-27T15:05:43.655Z,33.73
2019-01-27T15:08:16.019Z,34.43
2019-01-27T15:10:52.033Z,34.07
2019-01-27T15:13:22.777Z,35.67
2019-01-27T15:15:52.732Z,35.00
2019-01-27T15:18:22.575Z,34.17
2019-01-27T15:21:05.397Z,35.23
2019-01-27T15:23:35.045Z,36.80
2019-01-27T15:26:17.234Z,35.53
2019-01-27T15:28:48.489Z,45.47
2019-01-27T15:31:17.777Z,36.33
2019-01-27T15:33:47.299Z,34.90
2019-01-27T15:36:16.807Z,34.80
2019-01-27T15:38:46.779Z,34.93
2019-01-27T15:41:16.085Z,35.37
2019-01-27T15:43:48.684Z,35.10
2019-01-27T15:46:16.616Z,35.33
2019-01-27T15:48:47.685Z,36.30
2019-01-27T15:51:19.446Z,33.60
2019-01-27T15:53:49.498Z,34.80
2019-01-27T15:56:20.746Z,36.37
2019-01-27T15:58:50.964Z,33.50
2019-01-27T16:01:20.330Z,33.57
2019-01-27T16:03:49.784Z,32.03
2019-01-27T16:06:20.027Z,32.53
2019-01-27T16:08:49.713Z,35.07
2019-01-27T16:11:19.745Z,40.65
2019-01-27T16:13:49.120Z,36.23
2019-01-27T16:16:18.573Z,34.97
2019-01-27T16:18:48.049Z,34.90
2019-01-27T16:21:17.754Z,34.87
2019-01-27T16:23:53.329Z,31.57
2019-01-27T16:26:22.866Z,34.33
2019-01-27T16:28:52.751Z,34.37
2019-01-27T16:31:50.081Z,35.43
2019-01-27T16:34:35.659Z,33.77
2019-01-27T16:37:06.195Z,34.83
2019-01-27T16:39:36.621Z,33.20
2019-01-27T16:42:06.052Z,33.17
2019-01-27T16:44:35.524Z,33.83
2019-01-27T16:47:04.962Z,32.07
2019-01-27T16:49:34.449Z,33.17
2019-01-27T16:52:04.174Z,30.63
2019-01-27T16:54:34.994Z,30.87
2019-01-27T16:57:04.261Z,28.87
2019-01-27T16:59:34.346Z,30.23
2019-01-27T17:02:03.942Z,29.70
2019-01-27T17:04:33.264Z,28.50
2019-01-27T17:07:02.668Z,28.80
2019-01-27T17:09:32.466Z,29.20
2019-01-27T17:12:01.898Z,30.93
2019-01-27T17:14:31.370Z,30.07
2019-01-27T17:17:00.658Z,28.90
2019-01-27T17:19:30.082Z,29.20
2019-01-27T17:22:00.345Z,29.70
2019-01-27T17:24:29.787Z,29.00
2019-01-27T17:26:59.065Z,28.63
2019-01-27T17:29:28.550Z,30.77
2019-01-27T17:31:58.997Z,30.87
2019-01-27T17:34:28.356Z,29.80
2019-01-27T17:36:57.704Z,29.70
2019-01-27T17:39:27.154Z,30.60
2019-01-27T17:41:58.408Z,30.50
2019-01-27T17:44:27.769Z,30.37
2019-01-27T17:46:57.029Z,30.53
2019-01-27T17:49:26.437Z,29.90
2019-01-27T17:51:55.693Z,29.57
2019-01-27T17:54:25.158Z,30.33
2019-01-27T17:57:02.612Z,30.40
2019-01-27T17:59:40.410Z,29.10
2019-01-27T18:02:28.957Z,30.20
2019-01-27T18:05:34.347Z,30.43
2019-01-27T18:08:08.092Z,28.33
2019-01-27T18:10:46.827Z,29.57
2019-01-27T18:13:29.887Z,30.10
2019-01-27T18:16:01.533Z,28.80
2019-01-27T18:18:32.093Z,29.40
2019-01-27T18:21:02.678Z,30.20
2019-01-27T18:23:38.272Z,29.83
2019-01-27T18:26:07.693Z,29.10
2019-01-27T18:28:38.689Z,31.17
2019-01-27T18:31:11.819Z,30.37
2019-01-27T18:33:47.385Z,31.73
2019-01-27T18:36:18.198Z,31.17
2019-01-27T18:38:48.272Z,30.50
2019-01-27T18:41:19.623Z,30.07
2019-01-27T18:43:49.278Z,30.00
2019-01-27T18:46:19.736Z,30.00
2019-01-27T18:48:50.003Z,30.43
2019-01-27T18:51:20.893Z,29.50
2019-01-27T18:54:31.043Z,32.60
2019-01-27T18:57:13.198Z,29.13
2019-01-27T18:59:49.319Z,30.97
2019-01-27T19:02:41.435Z,32.73
2019-01-27T19:05:31.373Z,30.70
2019-01-27T19:08:23.389Z,32.07
2019-01-27T19:10:59.571Z,31.50
2019-01-27T19:13:48.153Z,30.73
2019-01-27T19:16:29.337Z,30.93
2019-01-27T19:19:23.941Z,30.63
2019-01-27T19:22:02.276Z,30.83
2019-01-27T19:25:01.106Z,31.53
2019-01-27T19:27:42.104Z,32.07
2019-01-27T19:30:35.008Z,31.43
2019-01-27T19:33:11.133Z,32.73
2019-01-27T19:35:48.374Z,31.03
2019-01-27T19:38:36.880Z,33.77
2019-01-27T19:41:26.602Z,32.10
2019-01-27T19:44:25.040Z,33.10
2019-01-27T19:47:09.252Z,31.77
2019-01-27T19:49:55.577Z,33.00
2019-01-27T19:52:42.701Z,33.17
2019-01-27T19:55:28.434Z,31.37
2019-01-27T19:58:04.526Z,32.37
2019-01-27T20:00:55.916Z,31.37
2019-01-27T20:03:57.119Z,31.33
2019-01-27T20:06:35.429Z,31.13
2019-01-27T20:09:29.591Z,33.17
2019-01-27T20:12:17.685Z,33.23
2019-01-27T20:14:59.891Z,33.60
2019-01-27T20:17:58.003Z,33.40
2019-01-27T20:20:49.870Z,33.33
2019-01-27T20:23:27.284Z,33.43
2019-01-27T20:26:16.488Z,32.37
2019-01-27T20:29:09.690Z,31.37
2019-01-27T20:31:52.136Z,30.63
2019-01-27T20:34:52.136Z,31.10
2019-01-27T20:48:19.476Z,31.57
2019-01-27T20:51:00.853Z,30.97
2019-01-27T20:53:35.139Z,29.77
2019-01-27T20:56:22.510Z,31.37
2019-01-27T20:59:10.560Z,31.63
2019-01-27T21:02:10.758Z,32.97
2019-01-27T21:04:59.191Z,32.90
2019-01-27T21:07:36.828Z,32.17
2019-01-27T21:10:22.583Z,32.93
2019-01-27T21:13:16.892Z,33.73
2019-01-27T21:15:51.621Z,34.47
2019-01-27T21:18:51.925Z,34.90
2019-01-27T21:21:21.329Z,33.13
2019-01-27T21:23:50.564Z,34.33
2019-01-27T21:26:20.060Z,34.27
2019-01-27T21:28:49.333Z,35.27
2019-01-27T21:31:18.917Z,36.80
2019-01-27T21:33:48.257Z,34.73
2019-01-27T21:36:17.698Z,34.33
2019-01-27T21:38:46.955Z,33.93
2019-01-27T21:41:16.409Z,34.50
2019-01-27T21:43:45.758Z,33.40
2019-01-27T21:46:15.134Z,36.07
2019-01-27T21:48:44.449Z,34.43
2019-01-27T21:51:14.196Z,34.53
2019-01-27T21:53:43.432Z,34.77
2019-01-27T21:56:12.715Z,34.47
2019-01-27T21:58:42.061Z,35.47
2019-01-27T22:01:11.393Z,32.93
2019-01-27T22:03:40.843Z,34.00
2019-01-27T22:06:10.433Z,35.00
2019-01-27T22:08:39.661Z,35.27
2019-01-27T22:11:09.092Z,34.77
2019-01-27T22:13:38.513Z,34.60
2019-01-27T22:16:07.945Z,34.73
2019-01-27T22:18:37.265Z,33.57
2019-01-27T22:21:06.671Z,35.47
2019-01-27T22:23:36.029Z,34.13
2019-01-27T22:26:05.383Z,33.67
2019-01-27T22:28:36.436Z,34.93
2019-01-27T22:31:05.839Z,33.87
2019-01-27T22:33:35.375Z,37.00
2019-01-27T22:36:04.966Z,33.77
2019-01-27T22:38:34.364Z,34.17
2019-01-27T22:41:03.628Z,35.27
2019-01-27T22:43:33.669Z,33.33
2019-01-27T22:46:02.986Z,34.30
2019-01-27T22:48:32.350Z,34.70
2019-01-27T22:51:01.823Z,34.70
2019-01-27T22:53:31.284Z,33.73
2019-01-27T22:56:01.029Z,34.07
2019-01-27T22:58:32.656Z,34.00
2019-01-27T23:01:06.520Z,36.83
2019-01-27T23:03:44.197Z,34.93
2019-01-27T23:06:13.603Z,35.77
2019-01-27T23:08:42.889Z,33.20
2019-01-27T23:11:15.360Z,35.10
2019-01-27T23:13:44.850Z,34.60
2019-01-27T23:16:16.897Z,35.73
2019-01-27T23:18:46.278Z,35.47
2019-01-27T23:21:15.518Z,37.30
2019-01-27T23:23:49.045Z,34.93
2019-01-27T23:26:18.475Z,37.10
2019-01-27T23:28:48.002Z,35.53
2019-01-27T23:31:17.492Z,37.03
2019-01-27T23:33:47.922Z,35.17
2019-01-27T23:36:17.166Z,34.83
2019-01-27T23:38:46.504Z,34.13
2019-01-27T23:41:15.941Z,36.77
2019-01-27T23:43:45.176Z,37.03
2019-01-27T23:46:14.586Z,35.57
2019-01-27T23:48:43.841Z,34.73
2019-01-27T23:51:13.303Z,37.60
2019-01-27T23:53:42.748Z,37.20
2019-01-27T23:56:12.164Z,37.00
2019-01-27T23:58:41.568Z,37.93
